Aviation Digital Data Service (ADDS)

Output produced by METARs form (2012 UTC 23 January 2019)
found at http://www.aviationweather.gov/metar/data/
 
METAR text: EGMC 231950Z 32006KT 9999 FEW009 BKN012 01/M02 Q1007
Conditions at: EGMC (SOUTHEND-ON-SEA , GB) observed 1950 UTC 23 January 2019
Temperature: 1.0°C (34°F)
Dewpoint: -2.0°C (28°F) [RH = 80%]
Pressure (altimeter): 29.73 inches Hg (1007.0 mb)
Winds: from the NW (320 degrees) at 7 MPH (6 knots; 3.1 m/s)
Visibility: 6 or more miles (10+ km)
Ceiling: 1200 feet AGL
Clouds: few clouds at 900 feet AGL
broken clouds at 1200 feet AGL
Weather: no significant weather observed at this time

METAR text: EGMC 231920Z 32004KT 9999 FEW009 BKN011 00/M02 Q1007
Conditions at: EGMC (SOUTHEND-ON-SEA , GB) observed 1920 UTC 23 January 2019
Temperature: 0.0°C (32°F)
Dewpoint: -2.0°C (28°F) [RH = 86%]
Pressure (altimeter): 29.73 inches Hg (1007.0 mb)
Winds: from the NW (320 degrees) at 5 MPH (4 knots; 2.1 m/s)
Visibility: 6 or more miles (10+ km)
Ceiling: 1100 feet AGL
Clouds: few clouds at 900 feet AGL
broken clouds at 1100 feet AGL
Weather: no significant weather observed at this time

METAR text: EGMC 231850Z 32006KT 9000 BKN009 01/M01 Q1007
Conditions at: EGMC (SOUTHEND-ON-SEA , GB) observed 1850 UTC 23 January 2019
Temperature: 1.0°C (34°F)
Dewpoint: -1.0°C (30°F) [RH = 86%]
Pressure (altimeter): 29.73 inches Hg (1007.0 mb)
Winds: from the NW (320 degrees) at 7 MPH (6 knots; 3.1 m/s)
Visibility: 6 miles ( 9 km)
Ceiling: 900 feet AGL
Clouds: broken clouds at 900 feet AGL
Weather: no significant weather observed at this time

METAR text: EGMC 231820Z 33009KT 9000 BKN008 01/M01 Q1006
Conditions at: EGMC (SOUTHEND-ON-SEA , GB) observed 1820 UTC 23 January 2019
Temperature: 1.0°C (34°F)
Dewpoint: -1.0°C (30°F) [RH = 86%]
Pressure (altimeter): 29.70 inches Hg (1006.0 mb)
Winds: from the NNW (330 degrees) at 10 MPH (9 knots; 4.6 m/s)
Visibility: 6 miles ( 9 km)
Ceiling: 800 feet AGL
Clouds: broken clouds at 800 feet AGL
Weather: no significant weather observed at this time

METAR text: EGMC 231750Z 33007KT 9000 BKN008 01/M01 Q1006
Conditions at: EGMC (SOUTHEND-ON-SEA , GB) observed 1750 UTC 23 January 2019
Temperature: 1.0°C (34°F)
Dewpoint: -1.0°C (30°F) [RH = 86%]
Pressure (altimeter): 29.70 inches Hg (1006.0 mb)
Winds: from the NNW (330 degrees) at 8 MPH (7 knots; 3.6 m/s)
Visibility: 6 miles ( 9 km)
Ceiling: 800 feet AGL
Clouds: broken clouds at 800 feet AGL
Weather: no significant weather observed at this time

METAR text: EGMC 231720Z 33008KT 9000 BKN008 01/M01 Q1006
Conditions at: EGMC (SOUTHEND-ON-SEA , GB) observed 1720 UTC 23 January 2019
Temperature: 1.0°C (34°F)
Dewpoint: -1.0°C (30°F) [RH = 86%]
Pressure (altimeter): 29.70 inches Hg (1006.0 mb)
Winds: from the NNW (330 degrees) at 9 MPH (8 knots; 4.1 m/s)
Visibility: 6 miles ( 9 km)
Ceiling: 800 feet AGL
Clouds: broken clouds at 800 feet AGL
Weather: no significant weather observed at this time

METAR text: EGMC 231650Z 34009KT 9000 BKN008 01/00 Q1005
Conditions at: EGMC (SOUTHEND-ON-SEA , GB) observed 1650 UTC 23 January 2019
Temperature: 1.0°C (34°F)
Dewpoint: 0.0°C (32°F) [RH = 93%]
Pressure (altimeter): 29.68 inches Hg (1005.0 mb)
Winds: from the NNW (340 degrees) at 10 MPH (9 knots; 4.6 m/s)
Visibility: 6 miles ( 9 km)
Ceiling: 800 feet AGL
Clouds: broken clouds at 800 feet AGL
Weather: no significant weather observed at this time

METAR text: EGMC 231620Z 32008KT 9000 BKN008 01/M01 Q1005
Conditions at: EGMC (SOUTHEND-ON-SEA , GB) observed 1620 UTC 23 January 2019
Temperature: 1.0°C (34°F)
Dewpoint: -1.0°C (30°F) [RH = 86%]
Pressure (altimeter): 29.68 inches Hg (1005.0 mb)
Winds: from the NW (320 degrees) at 9 MPH (8 knots; 4.1 m/s)
Visibility: 6 miles ( 9 km)
Ceiling: 800 feet AGL
Clouds: broken clouds at 800 feet AGL
Weather: no significant weather observed at this time

METAR text: EGMC 231550Z 32008KT 9000 BKN008 01/M01 Q1004
Conditions at: EGMC (SOUTHEND-ON-SEA , GB) observed 1550 UTC 23 January 2019
Temperature: 1.0°C (34°F)
Dewpoint: -1.0°C (30°F) [RH = 86%]
Pressure (altimeter): 29.65 inches Hg (1004.0 mb)
Winds: from the NW (320 degrees) at 9 MPH (8 knots; 4.1 m/s)
Visibility: 6 miles ( 9 km)
Ceiling: 800 feet AGL
Clouds: broken clouds at 800 feet AGL
Weather: no significant weather observed at this time

METAR text: EGMC 231520Z 32009KT 9000 BKN009 01/M01 Q1004
Conditions at: EGMC (SOUTHEND-ON-SEA , GB) observed 1520 UTC 23 January 2019
Temperature: 1.0°C (34°F)
Dewpoint: -1.0°C (30°F) [RH = 86%]
Pressure (altimeter): 29.65 inches Hg (1004.0 mb)
Winds: from the NW (320 degrees) at 10 MPH (9 knots; 4.6 m/s)
Visibility: 6 miles ( 9 km)
Ceiling: 900 feet AGL
Clouds: broken clouds at 900 feet AGL
Weather: no significant weather observed at this time

METAR text: EGMC 231450Z 32009KT 9000 BKN010 02/M00 Q1003
Conditions at: EGMC (SOUTHEND-ON-SEA , GB) observed 1450 UTC 23 January 2019
Temperature: 2.0°C (36°F)
Dewpoint: 0.0°C (32°F) [RH = 87%]
Pressure (altimeter): 29.62 inches Hg (1003.0 mb)
Winds: from the NW (320 degrees) at 10 MPH (9 knots; 4.6 m/s)
Visibility: 6 miles ( 9 km)
Ceiling: 1000 feet AGL
Clouds: broken clouds at 1000 feet AGL
Weather: no significant weather observed at this time

METAR text: EGMC 231420Z 33009KT 9000 BKN012 02/M00 Q1003
Conditions at: EGMC (SOUTHEND-ON-SEA , GB) observed 1420 UTC 23 January 2019
Temperature: 2.0°C (36°F)
Dewpoint: 0.0°C (32°F) [RH = 87%]
Pressure (altimeter): 29.62 inches Hg (1003.0 mb)
Winds: from the NNW (330 degrees) at 10 MPH (9 knots; 4.6 m/s)
Visibility: 6 miles ( 9 km)
Ceiling: 1200 feet AGL
Clouds: broken clouds at 1200 feet AGL
Weather: no significant weather observed at this time

METAR text: EGMC 231350Z 32009KT 9000 BKN012 02/M01 Q1002
Conditions at: EGMC (SOUTHEND-ON-SEA , GB) observed 1350 UTC 23 January 2019
Temperature: 2.0°C (36°F)
Dewpoint: -1.0°C (30°F) [RH = 80%]
Pressure (altimeter): 29.59 inches Hg (1002.0 mb)
Winds: from the NW (320 degrees) at 10 MPH (9 knots; 4.6 m/s)
Visibility: 6 miles ( 9 km)
Ceiling: 1200 feet AGL
Clouds: broken clouds at 1200 feet AGL
Weather: no significant weather observed at this time

METAR text: EGMC 231320Z 34010KT 8000 BKN012 02/M01 Q1002
Conditions at: EGMC (SOUTHEND-ON-SEA , GB) observed 1320 UTC 23 January 2019
Temperature: 2.0°C (36°F)
Dewpoint: -1.0°C (30°F) [RH = 80%]
Pressure (altimeter): 29.59 inches Hg (1002.0 mb)
Winds: from the NNW (340 degrees) at 12 MPH (10 knots; 5.1 m/s)
Visibility: 5 miles ( 8 km)
Ceiling: 1200 feet AGL
Clouds: broken clouds at 1200 feet AGL
Weather: no significant weather observed at this time

METAR text: EGMC 231250Z 32008KT 8000 SCT012 02/M01 Q1002
Conditions at: EGMC (SOUTHEND-ON-SEA , GB) observed 1250 UTC 23 January 2019
Temperature: 2.0°C (36°F)
Dewpoint: -1.0°C (30°F) [RH = 80%]
Pressure (altimeter): 29.59 inches Hg (1002.0 mb)
Winds: from the NW (320 degrees) at 9 MPH (8 knots; 4.1 m/s)
Visibility: 5 miles ( 8 km)
Ceiling: at least 12,000 feet AGL
Clouds: scattered clouds at 1200 feet AGL
Weather: no significant weather observed at this time

METAR text: EGMC 231220Z 31010KT 8000 SCT009 01/M01 Q1002
Conditions at: EGMC (SOUTHEND-ON-SEA , GB) observed 1220 UTC 23 January 2019
Temperature: 1.0°C (34°F)
Dewpoint: -1.0°C (30°F) [RH = 86%]
Pressure (altimeter): 29.59 inches Hg (1002.0 mb)
Winds: from the NW (310 degrees) at 12 MPH (10 knots; 5.1 m/s)
Visibility: 5 miles ( 8 km)
Ceiling: at least 12,000 feet AGL
Clouds: scattered clouds at 900 feet AGL
Weather: no significant weather observed at this time

METAR text: EGMC 231150Z 34011KT 8000 SCT009 01/M01 Q1002
Conditions at: EGMC (SOUTHEND-ON-SEA , GB) observed 1150 UTC 23 January 2019
Temperature: 1.0°C (34°F)
Dewpoint: -1.0°C (30°F) [RH = 86%]
Pressure (altimeter): 29.59 inches Hg (1002.0 mb)
Winds: from the NNW (340 degrees) at 13 MPH (11 knots; 5.7 m/s)
Visibility: 5 miles ( 8 km)
Ceiling: at least 12,000 feet AGL
Clouds: scattered clouds at 900 feet AGL
Weather: no significant weather observed at this time

METAR text: EGMC 231120Z 33011KT 8000 SCT010 02/01 Q1001
Conditions at: EGMC (SOUTHEND-ON-SEA , GB) observed 1120 UTC 23 January 2019
Temperature: 2.0°C (36°F)
Dewpoint: 1.0°C (34°F) [RH = 93%]
Pressure (altimeter): 29.56 inches Hg (1001.0 mb)
Winds: from the NNW (330 degrees) at 13 MPH (11 knots; 5.7 m/s)
Visibility: 5 miles ( 8 km)
Ceiling: at least 12,000 feet AGL
Clouds: scattered clouds at 1000 feet AGL
Weather: no significant weather observed at this time

METAR text: EGMC 231050Z 34009KT 8000 FEW011 03/01 Q1001
Conditions at: EGMC (SOUTHEND-ON-SEA , GB) observed 1050 UTC 23 January 2019
Temperature: 3.0°C (37°F)
Dewpoint: 1.0°C (34°F) [RH = 87%]
Pressure (altimeter): 29.56 inches Hg (1001.0 mb)
Winds: from the NNW (340 degrees) at 10 MPH (9 knots; 4.6 m/s)
Visibility: 5 miles ( 8 km)
Ceiling: at least 12,000 feet AGL
Clouds: few clouds at 1100 feet AGL
Weather: no significant weather observed at this time

METAR text: EGMC 231020Z 33009KT 8000 FEW009 01/M01 Q1001
Conditions at: EGMC (SOUTHEND-ON-SEA , GB) observed 1020 UTC 23 January 2019
Temperature: 1.0°C (34°F)
Dewpoint: -1.0°C (30°F) [RH = 86%]
Pressure (altimeter): 29.56 inches Hg (1001.0 mb)
Winds: from the NNW (330 degrees) at 10 MPH (9 knots; 4.6 m/s)
Visibility: 5 miles ( 8 km)
Ceiling: at least 12,000 feet AGL
Clouds: few clouds at 900 feet AGL
Weather: no significant weather observed at this time

METAR text: EGMC 230950Z 33008KT 290V350 9000 FEW009 01/M01 Q1000
Conditions at: EGMC (SOUTHEND-ON-SEA , GB) observed 0950 UTC 23 January 2019
Temperature: 1.0°C (34°F)
Dewpoint: -1.0°C (30°F) [RH = 86%]
Pressure (altimeter): 29.53 inches Hg (1000.0 mb)
Winds: from the NNW (330 degrees) at 9 MPH (8 knots; 4.1 m/s)
Visibility: 6 miles ( 9 km)
Ceiling: at least 12,000 feet AGL
Clouds: few clouds at 900 feet AGL
Weather: no significant weather observed at this time

METAR text: EGMC 230920Z 32007KT 290V350 9999 VCSH FEW009 SCT016 00/M02 Q1000
Conditions at: EGMC (SOUTHEND-ON-SEA , GB) observed 0920 UTC 23 January 2019
Temperature: 0.0°C (32°F)
Dewpoint: -2.0°C (28°F) [RH = 86%]
Pressure (altimeter): 29.53 inches Hg (1000.0 mb)
Winds: from the NW (320 degrees) at 8 MPH (7 knots; 3.6 m/s)
Visibility: 6 or more miles (10+ km)
Ceiling: at least 12,000 feet AGL
Clouds: few clouds at 900 feet AGL
scattered clouds at 1600 feet AGL
Weather: VCSH  (showers in vicinity)

METAR text: EGMC 230850Z 33006KT 9999 FEW016 00/M02 Q0999
Conditions at: EGMC (SOUTHEND-ON-SEA , GB) observed 0850 UTC 23 January 2019
Temperature: 0.0°C (32°F)
Dewpoint: -2.0°C (28°F) [RH = 86%]
Pressure (altimeter): 29.50 inches Hg (999.0 mb)
Winds: from the NNW (330 degrees) at 7 MPH (6 knots; 3.1 m/s)
Visibility: 6 or more miles (10+ km)
Ceiling: at least 12,000 feet AGL
Clouds: few clouds at 1600 feet AGL
Weather: no significant weather observed at this time

METAR text: EGMC 230820Z 33008KT 9999 FEW016 00/M02 Q0999
Conditions at: EGMC (SOUTHEND-ON-SEA , GB) observed 0820 UTC 23 January 2019
Temperature: 0.0°C (32°F)
Dewpoint: -2.0°C (28°F) [RH = 86%]
Pressure (altimeter): 29.50 inches Hg (999.0 mb)
Winds: from the NNW (330 degrees) at 9 MPH (8 knots; 4.1 m/s)
Visibility: 6 or more miles (10+ km)
Ceiling: at least 12,000 feet AGL
Clouds: few clouds at 1600 feet AGL
Weather: no significant weather observed at this time

METAR text: EGMC 230750Z 32008KT 9000 SCT017 00/M01 Q0999
Conditions at: EGMC (SOUTHEND-ON-SEA , GB) observed 0750 UTC 23 January 2019
Temperature: 0.0°C (32°F)
Dewpoint: -1.0°C (30°F) [RH = 93%]
Pressure (altimeter): 29.50 inches Hg (999.0 mb)
Winds: from the NW (320 degrees) at 9 MPH (8 knots; 4.1 m/s)
Visibility: 6 miles ( 9 km)
Ceiling: at least 12,000 feet AGL
Clouds: scattered clouds at 1700 feet AGL
Weather: no significant weather observed at this time

METAR text: EGMC 230720Z 32008KT 9000 VCSH SCT018 M01/M03 Q0998
Conditions at: EGMC (SOUTHEND-ON-SEA , GB) observed 0720 UTC 23 January 2019
Temperature: -1.0°C (30°F)
Dewpoint: -3.0°C (27°F) [RH = 86%]
Pressure (altimeter): 29.47 inches Hg (998.0 mb)
Winds: from the NW (320 degrees) at 9 MPH (8 knots; 4.1 m/s)
Visibility: 6 miles ( 9 km)
Ceiling: at least 12,000 feet AGL
Clouds: scattered clouds at 1800 feet AGL
Weather: VCSH  (showers in vicinity)

METAR text: EGMC 230650Z 33008KT 9999 FEW035 M01/M03 Q0998
Conditions at: EGMC (SOUTHEND-ON-SEA , GB) observed 0650 UTC 23 January 2019
Temperature: -1.0°C (30°F)
Dewpoint: -3.0°C (27°F) [RH = 86%]
Pressure (altimeter): 29.47 inches Hg (998.0 mb)
Winds: from the NNW (330 degrees) at 9 MPH (8 knots; 4.1 m/s)
Visibility: 6 or more miles (10+ km)
Ceiling: at least 12,000 feet AGL
Clouds: few clouds at 3500 feet AGL
Weather: no significant weather observed at this time

METAR text: EGMC 230620Z 32006KT 9999 FEW034 00/M02 Q0997
Conditions at: EGMC (SOUTHEND-ON-SEA , GB) observed 0620 UTC 23 January 2019
Temperature: 0.0°C (32°F)
Dewpoint: -2.0°C (28°F) [RH = 86%]
Pressure (altimeter): 29.44 inches Hg (997.0 mb)
Winds: from the NW (320 degrees) at 7 MPH (6 knots; 3.1 m/s)
Visibility: 6 or more miles (10+ km)
Ceiling: at least 12,000 feet AGL
Clouds: few clouds at 3400 feet AGL
Weather: no significant weather observed at this time

METAR text: EGMC 230550Z 33006KT 9999 FEW034 00/M01 Q0997
Conditions at: EGMC (SOUTHEND-ON-SEA , GB) observed 0550 UTC 23 January 2019
Temperature: 0.0°C (32°F)
Dewpoint: -1.0°C (30°F) [RH = 93%]
Pressure (altimeter): 29.44 inches Hg (997.0 mb)
Winds: from the NNW (330 degrees) at 7 MPH (6 knots; 3.1 m/s)
Visibility: 6 or more miles (10+ km)
Ceiling: at least 12,000 feet AGL
Clouds: few clouds at 3400 feet AGL
Weather: no significant weather observed at this time

METAR text: EGMC 230520Z 32005KT 8000 FEW033 M01/M02 Q0997
Conditions at: EGMC (SOUTHEND-ON-SEA , GB) observed 0520 UTC 23 January 2019
Temperature: -1.0°C (30°F)
Dewpoint: -2.0°C (28°F) [RH = 93%]
Pressure (altimeter): 29.44 inches Hg (997.0 mb)
Winds: from the NW (320 degrees) at 6 MPH (5 knots; 2.6 m/s)
Visibility: 5 miles ( 8 km)
Ceiling: at least 12,000 feet AGL
Clouds: few clouds at 3300 feet AGL
Weather: no significant weather observed at this time

METAR text: EGMC 230450Z 33005KT 6000 SCT016 M00/M02 Q0997
Conditions at: EGMC (SOUTHEND-ON-SEA , GB) observed 0450 UTC 23 January 2019
Temperature: 0.0°C (32°F)
Dewpoint: -2.0°C (28°F) [RH = 86%]
Pressure (altimeter): 29.44 inches Hg (997.0 mb)
Winds: from the NNW (330 degrees) at 6 MPH (5 knots; 2.6 m/s)
Visibility: 4 miles ( 6 km)
Ceiling: at least 12,000 feet AGL
Clouds: scattered clouds at 1600 feet AGL
Weather: no significant weather observed at this time

METAR text: EGMC 230350Z 35009KT 6000 BKN009 01/M01 Q0996
Conditions at: EGMC (SOUTHEND-ON-SEA , GB) observed 0350 UTC 23 January 2019
Temperature: 1.0°C (34°F)
Dewpoint: -1.0°C (30°F) [RH = 86%]
Pressure (altimeter): 29.41 inches Hg (996.0 mb)
Winds: from the N (350 degrees) at 10 MPH (9 knots; 4.6 m/s)
Visibility: 4 miles ( 6 km)
Ceiling: 900 feet AGL
Clouds: broken clouds at 900 feet AGL
Weather: no significant weather observed at this time

METAR text: EGMC 230250Z 33006KT 6000 BKN007 01/M01 Q0996
Conditions at: EGMC (SOUTHEND-ON-SEA , GB) observed 0250 UTC 23 January 2019
Temperature: 1.0°C (34°F)
Dewpoint: -1.0°C (30°F) [RH = 86%]
Pressure (altimeter): 29.41 inches Hg (996.0 mb)
Winds: from the NNW (330 degrees) at 7 MPH (6 knots; 3.1 m/s)
Visibility: 4 miles ( 6 km)
Ceiling: 700 feet AGL
Clouds: broken clouds at 700 feet AGL
Weather: no significant weather observed at this time

METAR text: EGMC 230150Z 35006KT 6000 BKN006 01/M01 Q0996
Conditions at: EGMC (SOUTHEND-ON-SEA , GB) observed 0150 UTC 23 January 2019
Temperature: 1.0°C (34°F)
Dewpoint: -1.0°C (30°F) [RH = 86%]
Pressure (altimeter): 29.41 inches Hg (996.0 mb)
Winds: from the N (350 degrees) at 7 MPH (6 knots; 3.1 m/s)
Visibility: 4 miles ( 6 km)
Ceiling: 600 feet AGL
Clouds: broken clouds at 600 feet AGL
Weather: no significant weather observed at this time

METAR text: EGMC 230050Z 32004KT 6000 BKN006 01/M01 Q0996
Conditions at: EGMC (SOUTHEND-ON-SEA , GB) observed 0050 UTC 23 January 2019
Temperature: 1.0°C (34°F)
Dewpoint: -1.0°C (30°F) [RH = 86%]
Pressure (altimeter): 29.41 inches Hg (996.0 mb)
Winds: from the NW (320 degrees) at 5 MPH (4 knots; 2.1 m/s)
Visibility: 4 miles ( 6 km)
Ceiling: 600 feet AGL
Clouds: broken clouds at 600 feet AGL
Weather: no significant weather observed at this time

METAR text: EGMC 222350Z 32004KT 8000 FEW030 SCT038 00/M01 Q0996
Conditions at: EGMC (SOUTHEND-ON-SEA , GB) observed 2350 UTC 22 January 2019
Temperature: 0.0°C (32°F)
Dewpoint: -1.0°C (30°F) [RH = 93%]
Pressure (altimeter): 29.41 inches Hg (996.0 mb)
Winds: from the NW (320 degrees) at 5 MPH (4 knots; 2.1 m/s)
Visibility: 5 miles ( 8 km)
Ceiling: at least 12,000 feet AGL
Clouds: few clouds at 3000 feet AGL
scattered clouds at 3800 feet AGL
Weather: no significant weather observed at this time

METAR text: EGMC 222250Z 32004KT 8000 NSC 00/M01 Q0996
Conditions at: EGMC (SOUTHEND-ON-SEA , GB) observed 2250 UTC 22 January 2019
Temperature: 0.0°C (32°F)
Dewpoint: -1.0°C (30°F) [RH = 93%]
Pressure (altimeter): 29.41 inches Hg (996.0 mb)
Winds: from the NW (320 degrees) at 5 MPH (4 knots; 2.1 m/s)
Visibility: 5 miles ( 8 km)
Ceiling: at least 12,000 feet AGL
Clouds: sky clear below 12,000 feet AGL
Weather: no significant weather observed at this time

METAR text: EGMC 222220Z 32005KT 8000 FEW018 BKN041 00/M01 Q0996
Conditions at: EGMC (SOUTHEND-ON-SEA , GB) observed 2220 UTC 22 January 2019
Temperature: 0.0°C (32°F)
Dewpoint: -1.0°C (30°F) [RH = 93%]
Pressure (altimeter): 29.41 inches Hg (996.0 mb)
Winds: from the NW (320 degrees) at 6 MPH (5 knots; 2.6 m/s)
Visibility: 5 miles ( 8 km)
Ceiling: 4100 feet AGL
Clouds: few clouds at 1800 feet AGL
broken clouds at 4100 feet AGL
Weather: no significant weather observed at this time

METAR text: EGMC 222150Z 34003KT 7000 BKN016 00/M01 Q0997
Conditions at: EGMC (SOUTHEND-ON-SEA , GB) observed 2150 UTC 22 January 2019
Temperature: 0.0°C (32°F)
Dewpoint: -1.0°C (30°F) [RH = 93%]
Pressure (altimeter): 29.44 inches Hg (997.0 mb)
Winds: from the NNW (340 degrees) at 3 MPH (3 knots; 1.5 m/s)
Visibility: 4 miles ( 7 km)
Ceiling: 1600 feet AGL
Clouds: broken clouds at 1600 feet AGL
Weather: no significant weather observed at this time

METAR text: EGMC 222120Z 33003KT 7000 -SHRASN FEW009 SCT015 BKN022 01/00 Q0997
Conditions at: EGMC (SOUTHEND-ON-SEA , GB) observed 2120 UTC 22 January 2019
Temperature: 1.0°C (34°F)
Dewpoint: 0.0°C (32°F) [RH = 93%]
Pressure (altimeter): 29.44 inches Hg (997.0 mb)
Winds: from the NNW (330 degrees) at 3 MPH (3 knots; 1.5 m/s)
Visibility: 4 miles ( 7 km)
Ceiling: 2200 feet AGL
Clouds: few clouds at 900 feet AGL
scattered clouds at 1500 feet AGL
broken clouds at 2200 feet AGL
Weather: -SHRA -SHSN  (light rain showers, light snow showers)

METAR text: EGMC 222050Z 31004KT 2500 R23/1400 -SHRASN BKN008 01/M01 Q0997
Conditions at: EGMC (SOUTHEND-ON-SEA , GB) observed 2050 UTC 22 January 2019
Temperature: 1.0°C (34°F)
Dewpoint: -1.0°C (30°F) [RH = 86%]
Pressure (altimeter): 29.44 inches Hg (997.0 mb)
Winds: from the NW (310 degrees) at 5 MPH (4 knots; 2.1 m/s)
Visibility: 1.55 miles (2.49 km)
Ceiling: 800 feet AGL
Clouds: broken clouds at 800 feet AGL
Weather: -SHRA SN  (light rain showers, moderate snow)

METAR text: EGMC 222020Z 30005KT 5000 -SHRASN BKN015 01/M01 Q0997
Conditions at: EGMC (SOUTHEND-ON-SEA , GB) observed 2020 UTC 22 January 2019
Temperature: 1.0°C (34°F)
Dewpoint: -1.0°C (30°F) [RH = 86%]
Pressure (altimeter): 29.44 inches Hg (997.0 mb)
Winds: from the WNW (300 degrees) at 6 MPH (5 knots; 2.6 m/s)
Visibility: 3 miles ( 5 km)
Ceiling: 1500 feet AGL
Clouds: broken clouds at 1500 feet AGL
Weather: -SHRA -SHSN  (light rain showers, light snow showers)

METAR text: EGMC 221950Z 30005KT 7000 -SHRASN BKN015 02/M01 Q0997
Conditions at: EGMC (SOUTHEND-ON-SEA , GB) observed 1950 UTC 22 January 2019
Temperature: 2.0°C (36°F)
Dewpoint: -1.0°C (30°F) [RH = 80%]
Pressure (altimeter): 29.44 inches Hg (997.0 mb)
Winds: from the WNW (300 degrees) at 6 MPH (5 knots; 2.6 m/s)
Visibility: 4 miles ( 7 km)
Ceiling: 1500 feet AGL
Clouds: broken clouds at 1500 feet AGL
Weather: -SHRA -SHSN  (light rain showers, light snow showers)

METAR text: EGMC 221920Z 27002KT 9999 -SHRA FEW029 BKN035 03/M01 Q0998
Conditions at: EGMC (SOUTHEND-ON-SEA , GB) observed 1920 UTC 22 January 2019
Temperature: 3.0°C (37°F)
Dewpoint: -1.0°C (30°F) [RH = 75%]
Pressure (altimeter): 29.47 inches Hg (998.0 mb)
Winds: from the W (270 degrees) at 2 MPH (2 knots; 1.0 m/s)
Visibility: 6 or more miles (10+ km)
Ceiling: 3500 feet AGL
Clouds: few clouds at 2900 feet AGL
broken clouds at 3500 feet AGL
Weather: -SHRA  (light rain showers)

METAR text: EGMC 221850Z 24005KT 9999 BKN034 03/M02 Q0998
Conditions at: EGMC (SOUTHEND-ON-SEA , GB) observed 1850 UTC 22 January 2019
Temperature: 3.0°C (37°F)
Dewpoint: -2.0°C (28°F) [RH = 70%]
Pressure (altimeter): 29.47 inches Hg (998.0 mb)
Winds: from the WSW (240 degrees) at 6 MPH (5 knots; 2.6 m/s)
Visibility: 6 or more miles (10+ km)
Ceiling: 3400 feet AGL
Clouds: broken clouds at 3400 feet AGL
Weather: no significant weather observed at this time

METAR text: EGMC 221820Z 22006KT 9999 FEW027 SCT046 03/M02 Q0998
Conditions at: EGMC (SOUTHEND-ON-SEA , GB) observed 1820 UTC 22 January 2019
Temperature: 3.0°C (37°F)
Dewpoint: -2.0°C (28°F) [RH = 70%]
Pressure (altimeter): 29.47 inches Hg (998.0 mb)
Winds: from the SW (220 degrees) at 7 MPH (6 knots; 3.1 m/s)
Visibility: 6 or more miles (10+ km)
Ceiling: at least 12,000 feet AGL
Clouds: few clouds at 2700 feet AGL
scattered clouds at 4600 feet AGL
Weather: no significant weather observed at this time

METAR text: EGMC 221750Z 25007KT 9999 FEW035 SCT040 04/M01 Q0998
Conditions at: EGMC (SOUTHEND-ON-SEA , GB) observed 1750 UTC 22 January 2019
Temperature: 4.0°C (39°F)
Dewpoint: -1.0°C (30°F) [RH = 70%]
Pressure (altimeter): 29.47 inches Hg (998.0 mb)
Winds: from the WSW (250 degrees) at 8 MPH (7 knots; 3.6 m/s)
Visibility: 6 or more miles (10+ km)
Ceiling: at least 12,000 feet AGL
Clouds: few clouds at 3500 feet AGL
scattered clouds at 4000 feet AGL
Weather: no significant weather observed at this time

METAR text: EGMC 221720Z 23006KT 9999 FEW015 03/M01 Q0998
Conditions at: EGMC (SOUTHEND-ON-SEA , GB) observed 1720 UTC 22 January 2019
Temperature: 3.0°C (37°F)
Dewpoint: -1.0°C (30°F) [RH = 75%]
Pressure (altimeter): 29.47 inches Hg (998.0 mb)
Winds: from the SW (230 degrees) at 7 MPH (6 knots; 3.1 m/s)
Visibility: 6 or more miles (10+ km)
Ceiling: at least 12,000 feet AGL
Clouds: few clouds at 1500 feet AGL
Weather: no significant weather observed at this time

METAR text: EGMC 221650Z 21006KT 9999 FEW015 03/M01 Q0999
Conditions at: EGMC (SOUTHEND-ON-SEA , GB) observed 1650 UTC 22 January 2019
Temperature: 3.0°C (37°F)
Dewpoint: -1.0°C (30°F) [RH = 75%]
Pressure (altimeter): 29.50 inches Hg (999.0 mb)
Winds: from the SSW (210 degrees) at 7 MPH (6 knots; 3.1 m/s)
Visibility: 6 or more miles (10+ km)
Ceiling: at least 12,000 feet AGL
Clouds: few clouds at 1500 feet AGL
Weather: no significant weather observed at this time

METAR text: EGMC 221620Z 21004KT 9999 FEW015 03/M01 Q0999
Conditions at: EGMC (SOUTHEND-ON-SEA , GB) observed 1620 UTC 22 January 2019
Temperature: 3.0°C (37°F)
Dewpoint: -1.0°C (30°F) [RH = 75%]
Pressure (altimeter): 29.50 inches Hg (999.0 mb)
Winds: from the SSW (210 degrees) at 5 MPH (4 knots; 2.1 m/s)
Visibility: 6 or more miles (10+ km)
Ceiling: at least 12,000 feet AGL
Clouds: few clouds at 1500 feet AGL
Weather: no significant weather observed at this time

METAR text: EGMC 221550Z 23004KT 9999 FEW018 05/01 Q0999
Conditions at: EGMC (SOUTHEND-ON-SEA , GB) observed 1550 UTC 22 January 2019
Temperature: 5.0°C (41°F)
Dewpoint: 1.0°C (34°F) [RH = 75%]
Pressure (altimeter): 29.50 inches Hg (999.0 mb)
Winds: from the SW (230 degrees) at 5 MPH (4 knots; 2.1 m/s)
Visibility: 6 or more miles (10+ km)
Ceiling: at least 12,000 feet AGL
Clouds: few clouds at 1800 feet AGL
Weather: no significant weather observed at this time

METAR text: EGMC 221520Z 24004KT 9999 FEW018 03/M01 Q0999
Conditions at: EGMC (SOUTHEND-ON-SEA , GB) observed 1520 UTC 22 January 2019
Temperature: 3.0°C (37°F)
Dewpoint: -1.0°C (30°F) [RH = 75%]
Pressure (altimeter): 29.50 inches Hg (999.0 mb)
Winds: from the WSW (240 degrees) at 5 MPH (4 knots; 2.1 m/s)
Visibility: 6 or more miles (10+ km)
Ceiling: at least 12,000 feet AGL
Clouds: few clouds at 1800 feet AGL
Weather: no significant weather observed at this time

METAR text: EGMC 221450Z 24007KT 9999 FEW026 04/M01 Q0999
Conditions at: EGMC (SOUTHEND-ON-SEA , GB) observed 1450 UTC 22 January 2019
Temperature: 4.0°C (39°F)
Dewpoint: -1.0°C (30°F) [RH = 70%]
Pressure (altimeter): 29.50 inches Hg (999.0 mb)
Winds: from the WSW (240 degrees) at 8 MPH (7 knots; 3.6 m/s)
Visibility: 6 or more miles (10+ km)
Ceiling: at least 12,000 feet AGL
Clouds: few clouds at 2600 feet AGL
Weather: no significant weather observed at this time

METAR text: EGMC 221420Z 27008KT 9999 FEW027 06/M01 Q1000
Conditions at: EGMC (SOUTHEND-ON-SEA , GB) observed 1420 UTC 22 January 2019
Temperature: 6.0°C (43°F)
Dewpoint: -1.0°C (30°F) [RH = 61%]
Pressure (altimeter): 29.53 inches Hg (1000.0 mb)
Winds: from the W (270 degrees) at 9 MPH (8 knots; 4.1 m/s)
Visibility: 6 or more miles (10+ km)
Ceiling: at least 12,000 feet AGL
Clouds: few clouds at 2700 feet AGL
Weather: no significant weather observed at this time

METAR text: EGMC 221350Z 27008KT 9999 FEW027 06/01 Q1000
Conditions at: EGMC (SOUTHEND-ON-SEA , GB) observed 1350 UTC 22 January 2019
Temperature: 6.0°C (43°F)
Dewpoint: 1.0°C (34°F) [RH = 70%]
Pressure (altimeter): 29.53 inches Hg (1000.0 mb)
Winds: from the W (270 degrees) at 9 MPH (8 knots; 4.1 m/s)
Visibility: 6 or more miles (10+ km)
Ceiling: at least 12,000 feet AGL
Clouds: few clouds at 2700 feet AGL
Weather: no significant weather observed at this time

METAR text: EGMC 221320Z 26008KT 9999 FEW024 06/01 Q1000
Conditions at: EGMC (SOUTHEND-ON-SEA , GB) observed 1320 UTC 22 January 2019
Temperature: 6.0°C (43°F)
Dewpoint: 1.0°C (34°F) [RH = 70%]
Pressure (altimeter): 29.53 inches Hg (1000.0 mb)
Winds: from the W (260 degrees) at 9 MPH (8 knots; 4.1 m/s)
Visibility: 6 or more miles (10+ km)
Ceiling: at least 12,000 feet AGL
Clouds: few clouds at 2400 feet AGL
Weather: no significant weather observed at this time

METAR text: EGMC 221250Z 27008KT 240V310 9999 FEW023 07/01 Q1001
Conditions at: EGMC (SOUTHEND-ON-SEA , GB) observed 1250 UTC 22 January 2019
Temperature: 7.0°C (45°F)
Dewpoint: 1.0°C (34°F) [RH = 66%]
Pressure (altimeter): 29.56 inches Hg (1001.0 mb)
Winds: from the W (270 degrees) at 9 MPH (8 knots; 4.1 m/s)
Visibility: 6 or more miles (10+ km)
Ceiling: at least 12,000 feet AGL
Clouds: few clouds at 2300 feet AGL
Weather: no significant weather observed at this time

METAR text: EGMC 221220Z 27008KT 240V310 9999 FEW020 05/01 Q1002
Conditions at: EGMC (SOUTHEND-ON-SEA , GB) observed 1220 UTC 22 January 2019
Temperature: 5.0°C (41°F)
Dewpoint: 1.0°C (34°F) [RH = 75%]
Pressure (altimeter): 29.59 inches Hg (1002.0 mb)
Winds: from the W (270 degrees) at 9 MPH (8 knots; 4.1 m/s)
Visibility: 6 or more miles (10+ km)
Ceiling: at least 12,000 feet AGL
Clouds: few clouds at 2000 feet AGL
Weather: no significant weather observed at this time

METAR text: EGMC 221150Z 26010KT 9999 FEW020 05/01 Q1002
Conditions at: EGMC (SOUTHEND-ON-SEA , GB) observed 1150 UTC 22 January 2019
Temperature: 5.0°C (41°F)
Dewpoint: 1.0°C (34°F) [RH = 75%]
Pressure (altimeter): 29.59 inches Hg (1002.0 mb)
Winds: from the W (260 degrees) at 12 MPH (10 knots; 5.1 m/s)
Visibility: 6 or more miles (10+ km)
Ceiling: at least 12,000 feet AGL
Clouds: few clouds at 2000 feet AGL
Weather: no significant weather observed at this time

METAR text: EGMC 221120Z 26010KT CAVOK 05/01 Q1002
Conditions at: EGMC (SOUTHEND-ON-SEA , GB) observed 1120 UTC 22 January 2019
Temperature: 5.0°C (41°F)
Dewpoint: 1.0°C (34°F) [RH = 75%]
Pressure (altimeter): 29.59 inches Hg (1002.0 mb)
Winds: from the W (260 degrees) at 12 MPH (10 knots; 5.1 m/s)
Visibility: 6 or more miles (10+ km)
Ceiling: ceiling and visibility are OK
Clouds: unknown
Weather: no significant weather observed at this time

METAR text: EGMC 221050Z 25008KT CAVOK 04/01 Q1003
Conditions at: EGMC (SOUTHEND-ON-SEA , GB) observed 1050 UTC 22 January 2019
Temperature: 4.0°C (39°F)
Dewpoint: 1.0°C (34°F) [RH = 81%]
Pressure (altimeter): 29.62 inches Hg (1003.0 mb)
Winds: from the WSW (250 degrees) at 9 MPH (8 knots; 4.1 m/s)
Visibility: 6 or more miles (10+ km)
Ceiling: ceiling and visibility are OK
Clouds: unknown
Weather: no significant weather observed at this time

METAR text: EGMC 221020Z 25009KT 9999 FEW035 02/M00 Q1003
Conditions at: EGMC (SOUTHEND-ON-SEA , GB) observed 1020 UTC 22 January 2019
Temperature: 2.0°C (36°F)
Dewpoint: 0.0°C (32°F) [RH = 87%]
Pressure (altimeter): 29.62 inches Hg (1003.0 mb)
Winds: from the WSW (250 degrees) at 10 MPH (9 knots; 4.6 m/s)
Visibility: 6 or more miles (10+ km)
Ceiling: at least 12,000 feet AGL
Clouds: few clouds at 3500 feet AGL
Weather: no significant weather observed at this time

METAR text: EGMC 220950Z 24008KT CAVOK 03/01 Q1003
Conditions at: EGMC (SOUTHEND-ON-SEA , GB) observed 0950 UTC 22 January 2019
Temperature: 3.0°C (37°F)
Dewpoint: 1.0°C (34°F) [RH = 87%]
Pressure (altimeter): 29.62 inches Hg (1003.0 mb)
Winds: from the WSW (240 degrees) at 9 MPH (8 knots; 4.1 m/s)
Visibility: 6 or more miles (10+ km)
Ceiling: ceiling and visibility are OK
Clouds: unknown
Weather: no significant weather observed at this time

METAR text: EGMC 220920Z 24006KT 9999 FEW031 02/00 Q1003
Conditions at: EGMC (SOUTHEND-ON-SEA , GB) observed 0920 UTC 22 January 2019
Temperature: 2.0°C (36°F)
Dewpoint: 0.0°C (32°F) [RH = 87%]
Pressure (altimeter): 29.62 inches Hg (1003.0 mb)
Winds: from the WSW (240 degrees) at 7 MPH (6 knots; 3.1 m/s)
Visibility: 6 or more miles (10+ km)
Ceiling: at least 12,000 feet AGL
Clouds: few clouds at 3100 feet AGL
Weather: no significant weather observed at this time

METAR text: EGMC 220850Z 23006KT CAVOK 01/M01 Q1003
Conditions at: EGMC (SOUTHEND-ON-SEA , GB) observed 0850 UTC 22 January 2019
Temperature: 1.0°C (34°F)
Dewpoint: -1.0°C (30°F) [RH = 86%]
Pressure (altimeter): 29.62 inches Hg (1003.0 mb)
Winds: from the SW (230 degrees) at 7 MPH (6 knots; 3.1 m/s)
Visibility: 6 or more miles (10+ km)
Ceiling: ceiling and visibility are OK
Clouds: unknown
Weather: no significant weather observed at this time

METAR text: EGMC 220820Z 25007KT CAVOK 02/M00 Q1003
Conditions at: EGMC (SOUTHEND-ON-SEA , GB) observed 0820 UTC 22 January 2019
Temperature: 2.0°C (36°F)
Dewpoint: 0.0°C (32°F) [RH = 87%]
Pressure (altimeter): 29.62 inches Hg (1003.0 mb)
Winds: from the WSW (250 degrees) at 8 MPH (7 knots; 3.6 m/s)
Visibility: 6 or more miles (10+ km)
Ceiling: ceiling and visibility are OK
Clouds: unknown
Weather: no significant weather observed at this time

Forecast for: EGMC (SOUTHEND-ON-SEA , GB)
Text: TAF EGMC 231957Z 2321/2406 32005KT 9999 FEW020
Forecast period: 2100 UTC 23 January 2019 to 0600 UTC 24 January 2019
Forecast type: FROM: standard forecast or significant change
Winds: from the NW (320 degrees) at 6 MPH (5 knots; 2.6 m/s)
Visibility: 6 or more miles 10+ km)
Ceiling: at least 12,000 feet AGL
Clouds: few clouds at 2000 feet AGL
Weather: no significant weather forecast for this period
Text: BECMG 2321/2324 8000
Forecast period: 2100 UTC 23 January 2019 to 0600 UTC 24 January 2019
Forecast type: BECOMING: Conditions expected to become as follows by 0000 UTC 24 January 2019
Winds: from the NW (320 degrees) at 6 MPH (5 knots; 2.6 m/s)
Visibility: 5 miles (8 km)
Ceiling: at least 12,000 feet AGL
Clouds: few clouds at 2000 feet AGL
Weather: no significant weather forecast for this period
Text: PROB30 2321/2323 BKN012
Forecast period: 2100 to 2300 UTC 23 January 2019
Forecast type: PROBABLE: 30 percent likelihood of the following during this time
Visibility: missing
Ceiling: 1200 feet AGL
Clouds: broken clouds at 1200 feet AGL
Weather: no significant weather forecast for this period
Text: PROB30 2400/2406 2000 BR
Forecast period: 0000 to 0600 UTC 24 January 2019
Forecast type: PROBABLE: 30 percent likelihood of the following during this time
Visibility: 1.24 miles (2.00 km)
Ceiling: unknown
Clouds: missing
Weather: BR  (mist)